M/V Alton St. Amant — WDE7604 — position and weather

sailwx.info

Track history (hours):
 
Tides and Currents Weather Stations Pressure Air Temp Water Temp Dewpoint Dewpoint Depression Visibility Wind Speed Wind Dir Waves Ship Positions

M/V Alton St. Amant

Owner: The Barge Investment Group Five, L.L.C., Harahan, LA. More information available from US FCC via Universal Licensing System and Coast Guard Vessel Documentation Center.

Last reported at 2015-Aug-02 08:32 UTC. Time now 2015-Aug-02 18:22 UTC.
Position N 29°47' W 095°05'.

Length 25 m; draft 2.7 m.

Type: Towing. MMSI: 367395270.

Date/timePositionNaut miles runAvg speedWind from/ knotsBaromVisibWave heightAir tempDewpointWater temp
2015-Aug-02 08:32N 29°47' W 095°05'0 0.1
2015-Aug-02 06:28N 29°47' W 095°05'0 0.0
2015-Aug-02 05:33N 29°47' W 095°05'0 0.0
2015-Aug-02 02:15N 29°47' W 095°05'0 0.0
2015-Jul-31 20:09N 29°47' W 095°05'0 0.4
2015-Jul-31 19:29N 29°47' W 095°05'0 0.0
2015-Jul-31 11:32N 29°47' W 095°05'0 0.0
2015-Jul-31 10:15N 29°47' W 095°05'0 0.0
2015-Jul-31 05:32N 29°47' W 095°05'0 0.0
2015-Jul-31 04:25N 29°47' W 095°05'0 0.0
2015-Jul-31 03:30N 29°47' W 095°05'0 0.0
2015-Jul-31 02:31N 29°47' W 095°05'0 0.0
2015-Jul-31 01:07N 29°47' W 095°05'0 0.0
2015-Jul-30 23:29N 29°47' W 095°05'0 0.0
2015-Jul-30 21:32N 29°47' W 095°05'0 0.0
2015-Jul-30 19:29N 29°47' W 095°05'0 0.0
2015-Jul-30 18:33N 29°47' W 095°05'0 0.0
2015-Jul-30 07:29N 29°47' W 095°05'0 0.0
2015-Jul-30 06:27N 29°47' W 095°05'0 0.2
2015-Jul-30 05:32N 29°47' W 095°05'0 0.0
2015-Jul-29 23:27N 29°47' W 095°05'0 0.3
2015-Jul-29 22:33N 29°47' W 095°04'0 0.1
2015-Jul-29 21:32N 29°47' W 095°05'0 0.0
2015-Jul-29 20:29N 29°47' W 095°05'0 0.0
2015-Jul-29 11:25N 29°47' W 095°05'0 0.0
2015-Jul-29 10:32N 29°47' W 095°05'0 0.0
2015-Jul-27 18:06N 29°47' W 095°05'0 0.1
2015-Jul-27 17:33N 29°47' W 095°05'0 0.1
2015-Jul-27 16:30N 29°47' W 095°05'1 1.4
2015-Jul-27 15:31N 29°46' W 095°05'2 0.1
2015-Jul-26 23:29N 29°45' W 095°06'0 0.0
2015-Jul-26 12:33N 29°45' W 095°06'0 0.0
2015-Jul-26 11:33N 29°45' W 095°06'0 0.0
2015-Jul-26 08:33N 29°45' W 095°06'0 0.0
2015-Jul-26 07:21N 29°45' W 095°06'0 0.0
2015-Jul-26 06:29N 29°45' W 095°06'0 0.0
2015-Jul-26 05:33N 29°45' W 095°06'0 0.0
2015-Jul-26 04:31N 29°45' W 095°06'0 0.0
2015-Jul-26 03:27N 29°45' W 095°06'0 0.0
2015-Jul-26 02:29N 29°45' W 095°06'0 0.0
2015-Jul-26 01:27N 29°45' W 095°06'0 0.0
2015-Jul-26 00:18N 29°45' W 095°06'0 0.0
2015-Jul-25 23:31N 29°45' W 095°06'0 0.0
2015-Jul-25 22:20N 29°45' W 095°06'0 0.0
2015-Jul-25 21:31N 29°45' W 095°06'0 0.0
2015-Jul-25 20:32N 29°45' W 095°06'0 0.0
2015-Jul-25 19:32N 29°45' W 095°06'0 0.0
2015-Jul-25 18:32N 29°45' W 095°06'0 0.0
2015-Jul-25 17:31N 29°45' W 095°06'1 0.6
2015-Jul-25 16:23N 29°45' W 095°06'2 2.4
2015-Jul-25 15:25N 29°47' W 095°04'0 0.3
2015-Jul-25 14:25N 29°47' W 095°05'0 0.0
2015-Jul-25 11:34N 29°47' W 095°05'0 0.0
2015-Jul-25 10:33N 29°47' W 095°05'0 0.0
2015-Jul-25 08:33N 29°47' W 095°05'0 0.0
2015-Jul-25 07:33N 29°47' W 095°05'0 0.0
2015-Jul-25 06:32N 29°47' W 095°05'0 0.0
2015-Jul-25 05:33N 29°47' W 095°05'0 0.0
2015-Jul-25 04:33N 29°47' W 095°05'0 0.0
2015-Jul-25 00:34N 29°47' W 095°05'1 1.2
2015-Jul-24 23:32N 29°46' W 095°05'0 0.0
2015-Jul-24 22:31N 29°46' W 095°05'0 0.0
2015-Jul-24 21:30N 29°46' W 095°05'0 0.0
2015-Jul-24 20:30N 29°46' W 095°05'0 0.0
2015-Jul-24 19:27N 29°46' W 095°05'0 0.0
2015-Jul-24 18:33N 29°46' W 095°05'0 0.0
2015-Jul-24 15:30N 29°46' W 095°05'0 0.2
2015-Jul-24 14:32N 29°46' W 095°05'0 0.1
2015-Jul-24 13:33N 29°46' W 095°05'4 1.2
2015-Jul-24 10:32N 29°44' W 095°08'0 0.0
2015-Jul-24 09:17N 29°44' W 095°08'0 0.0
2015-Jul-24 08:31N 29°44' W 095°08'0 0.0
2015-Jul-24 07:31N 29°44' W 095°08'0 0.0
2015-Jul-24 06:33N 29°44' W 095°08'0 0.0
2015-Jul-24 04:32N 29°44' W 095°08'0 0.0
2015-Jul-24 03:32N 29°44' W 095°08'0 0.0
2015-Jul-24 02:27N 29°44' W 095°08'0 0.0
2015-Jul-24 01:33N 29°44' W 095°08'0 0.0
2015-Jul-24 00:33N 29°44' W 095°08'0 0.1
2015-Jul-23 23:23N 29°44' W 095°08'0 0.1
2015-Jul-23 21:12N 29°44' W 095°08'2 0.5
2015-Jul-23 18:09N 29°45' W 095°06'0 0.0
2015-Jul-23 17:33N 29°45' W 095°06'0 0.0
2015-Jul-23 16:33N 29°45' W 095°06'0 0.0
2015-Jul-23 15:26N 29°45' W 095°06'0 0.0
2015-Jul-23 14:31N 29°45' W 095°06'0 0.0
2015-Jul-23 13:32N 29°45' W 095°06'0 0.0
2015-Jul-23 12:33N 29°45' W 095°06'0 0.0
2015-Jul-23 11:33N 29°45' W 095°06'0 0.0
2015-Jul-23 10:29N 29°45' W 095°06'0 0.0
2015-Jul-23 09:32N 29°45' W 095°06'  
Track history (hours):
 
Tides and Currents Weather Stations Pressure Air Temp Water Temp Dewpoint Dewpoint Depression Visibility Wind Speed Wind Dir Waves Ship Positions

M/V Alton St. Amant

Owner: The Barge Investment Group Five, L.L.C., Harahan, LA. More information available from US FCC via Universal Licensing System and Coast Guard Vessel Documentation Center.

Last reported at 2015-Aug-02 08:32 UTC. Time now 2015-Aug-02 18:22 UTC.
Position N 29°47' W 095°05'.

Length 25 m; draft 2.7 m.

Type: Towing. MMSI: 367395270.

Date/timePositionNaut miles runAvg speedWind from/ knotsBaromVisibWave heightAir tempDewpointWater temp
2015-Aug-02 08:32N 29°47' W 095°05'0 0.1
2015-Aug-02 06:28N 29°47' W 095°05'0 0.0
2015-Aug-02 05:33N 29°47' W 095°05'0 0.0
2015-Aug-02 02:15N 29°47' W 095°05'0 0.0
2015-Jul-31 20:09N 29°47' W 095°05'0 0.4
2015-Jul-31 19:29N 29°47' W 095°05'0 0.0
2015-Jul-31 11:32N 29°47' W 095°05'0 0.0
2015-Jul-31 10:15N 29°47' W 095°05'0 0.0
2015-Jul-31 05:32N 29°47' W 095°05'0 0.0
2015-Jul-31 04:25N 29°47' W 095°05'0 0.0
2015-Jul-31 03:30N 29°47' W 095°05'0 0.0
2015-Jul-31 02:31N 29°47' W 095°05'0 0.0
2015-Jul-31 01:07N 29°47' W 095°05'0 0.0
2015-Jul-30 23:29N 29°47' W 095°05'0 0.0
2015-Jul-30 21:32N 29°47' W 095°05'0 0.0
2015-Jul-30 19:29N 29°47' W 095°05'0 0.0
2015-Jul-30 18:33N 29°47' W 095°05'0 0.0
2015-Jul-30 07:29N 29°47' W 095°05'0 0.0
2015-Jul-30 06:27N 29°47' W 095°05'0 0.2
2015-Jul-30 05:32N 29°47' W 095°05'0 0.0
2015-Jul-29 23:27N 29°47' W 095°05'0 0.3
2015-Jul-29 22:33N 29°47' W 095°04'0 0.1
2015-Jul-29 21:32N 29°47' W 095°05'0 0.0
2015-Jul-29 20:29N 29°47' W 095°05'0 0.0
2015-Jul-29 11:25N 29°47' W 095°05'0 0.0
2015-Jul-29 10:32N 29°47' W 095°05'0 0.0
2015-Jul-27 18:06N 29°47' W 095°05'0 0.1
2015-Jul-27 17:33N 29°47' W 095°05'0 0.1
2015-Jul-27 16:30N 29°47' W 095°05'1 1.4
2015-Jul-27 15:31N 29°46' W 095°05'2 0.1
2015-Jul-26 23:29N 29°45' W 095°06'0 0.0
2015-Jul-26 12:33N 29°45' W 095°06'0 0.0
2015-Jul-26 11:33N 29°45' W 095°06'0 0.0
2015-Jul-26 08:33N 29°45' W 095°06'0 0.0
2015-Jul-26 07:21N 29°45' W 095°06'0 0.0
2015-Jul-26 06:29N 29°45' W 095°06'0 0.0
2015-Jul-26 05:33N 29°45' W 095°06'0 0.0
2015-Jul-26 04:31N 29°45' W 095°06'0 0.0
2015-Jul-26 03:27N 29°45' W 095°06'0 0.0
2015-Jul-26 02:29N 29°45' W 095°06'0 0.0
2015-Jul-26 01:27N 29°45' W 095°06'0 0.0
2015-Jul-26 00:18N 29°45' W 095°06'0 0.0
2015-Jul-25 23:31N 29°45' W 095°06'0 0.0
2015-Jul-25 22:20N 29°45' W 095°06'0 0.0
2015-Jul-25 21:31N 29°45' W 095°06'0 0.0
2015-Jul-25 20:32N 29°45' W 095°06'0 0.0
2015-Jul-25 19:32N 29°45' W 095°06'0 0.0
2015-Jul-25 18:32N 29°45' W 095°06'0 0.0
2015-Jul-25 17:31N 29°45' W 095°06'1 0.6
2015-Jul-25 16:23N 29°45' W 095°06'2 2.4
2015-Jul-25 15:25N 29°47' W 095°04'0 0.3
2015-Jul-25 14:25N 29°47' W 095°05'0 0.0
2015-Jul-25 11:34N 29°47' W 095°05'0 0.0
2015-Jul-25 10:33N 29°47' W 095°05'0 0.0
2015-Jul-25 08:33N 29°47' W 095°05'0 0.0
2015-Jul-25 07:33N 29°47' W 095°05'0 0.0
2015-Jul-25 06:32N 29°47' W 095°05'0 0.0
2015-Jul-25 05:33N 29°47' W 095°05'0 0.0
2015-Jul-25 04:33N 29°47' W 095°05'0 0.0
2015-Jul-25 00:34N 29°47' W 095°05'1 1.2
2015-Jul-24 23:32N 29°46' W 095°05'0 0.0
2015-Jul-24 22:31N 29°46' W 095°05'0 0.0
2015-Jul-24 21:30N 29°46' W 095°05'0 0.0
2015-Jul-24 20:30N 29°46' W 095°05'0 0.0
2015-Jul-24 19:27N 29°46' W 095°05'0 0.0
2015-Jul-24 18:33N 29°46' W 095°05'0 0.0
2015-Jul-24 15:30N 29°46' W 095°05'0 0.2
2015-Jul-24 14:32N 29°46' W 095°05'0 0.1
2015-Jul-24 13:33N 29°46' W 095°05'4 1.2
2015-Jul-24 10:32N 29°44' W 095°08'0 0.0
2015-Jul-24 09:17N 29°44' W 095°08'0 0.0
2015-Jul-24 08:31N 29°44' W 095°08'0 0.0
2015-Jul-24 07:31N 29°44' W 095°08'0 0.0
2015-Jul-24 06:33N 29°44' W 095°08'0 0.0
2015-Jul-24 04:32N 29°44' W 095°08'0 0.0
2015-Jul-24 03:32N 29°44' W 095°08'0 0.0
2015-Jul-24 02:27N 29°44' W 095°08'0 0.0
2015-Jul-24 01:33N 29°44' W 095°08'0 0.0
2015-Jul-24 00:33N 29°44' W 095°08'0 0.1
2015-Jul-23 23:23N 29°44' W 095°08'0 0.1
2015-Jul-23 21:12N 29°44' W 095°08'2 0.5
2015-Jul-23 18:09N 29°45' W 095°06'0 0.0
2015-Jul-23 17:33N 29°45' W 095°06'0 0.0
2015-Jul-23 16:33N 29°45' W 095°06'0 0.0
2015-Jul-23 15:26N 29°45' W 095°06'0 0.0
2015-Jul-23 14:31N 29°45' W 095°06'0 0.0
2015-Jul-23 13:32N 29°45' W 095°06'0 0.0
2015-Jul-23 12:33N 29°45' W 095°06'0 0.0
2015-Jul-23 11:33N 29°45' W 095°06'0 0.0
2015-Jul-23 10:29N 29°45' W 095°06'0 0.0
2015-Jul-23 09:32N 29°45' W 095°06'  

Dump ship's entire track history